KVOK/VOK METAR and TAF weather

Enter ICAO airport designator
Station Type Date Time Source
KVOK METAR 2019/12/12 08:56 UTC NOAA

KVOK 120856Z AUTO 11005KT 10SM OVC065 M10/M14 A3034 RMK AO2 SLP298 T10981141 57019 PWINO $


Station Type Date Time Source
KVOK Decoded METAR 2019/12/12 08:56 UTC NOAA

Volk / Camp Douglas, WI, United States (KVOK) 43-56N 090-16W
Dec 12, 2019 - 03:56 AM EST / 2019.12.12 0856 UTC
Wind: from the ESE (110 degrees) at 6 MPH (5 KT):0
Visibility: 10 mile(s):0
Sky conditions: overcast
Temperature: 14.4 F (-9.8 C)
Windchill: 5 F (-15 C):1
Dew Point: 6.6 F (-14.1 C)
Relative Humidity: 70%
Pressure (altimeter): 30.34 in. Hg (1027 hPa)
Pressure tendency: 0.06 inches (1.9 hPa) lower than three hours ago
ob: KVOK 120856Z AUTO 11005KT 10SM OVC065 M10/M14 A3034 RMK AO2 SLP298 T10981141 57019 PWINO
cycle: 9

Station Type Date Time Source
KVOK TAF 2019/12/12 09:09 UTC NOAA

TAF KVOK 120900Z 1209/1315 12012KT 9999 BKN060 620804 QNH3016INS
BECMG 1212/1213 12012KT 9999 SCT035 BKN060 620604 QNH3003INS
BECMG 1214/1215 14012KT 2400 -SN OVC009 620109 QNH2995INS
BECMG 1220/1221 24009KT 4800 -SN BKN008 OVC010 620087 QNH2992INS
TEMPO 1221/1223 -FZDZ 660001 650104
BECMG 1223/1224 28006KT 9999 NSW OVC008 620084 QNH2996INS
BECMG 1302/1303 30006KT 9999 BKN008 QNH2996INS TXM01/1220Z TNM10/1209Z

Example: see airport list